默认 日期 大小 文件数 浏览量 最新下载 xml
the black磁力链接相关资源由用户搜索指令自动获取,结果来源于网络,本站不存储任何资料,亦不承担任何责任,请于24小时内删除,搜索到26039个磁力,显示前4000条数据,用时103ms。
    {"alt-torrent.com.mp4": 4001994, "www.alt-torrent.com.txt": 266, "POR FAVOR!.....COMPARTAN!.txt": 117, "The Black Room (2016) Netflix LAT - ZeiZ.jpg": 72731, "The Black Room (2016) Netflix LAT - ZeiZ.mkv": 2866075984}
创建时间: 2018-12-06 13:12:14 大小:2.67 GB 文件数量:5 热度:12 最近下载:2024-06-14 23:49:01
    {"RARBG.txt": 29, "poster.jpg": 16097, "screens.jpg": 191772, "NewSensations.Eden.Sin.Eden.Rides.The.Black.Slayher.26.06.2017.rq.mp4": 377464711}
创建时间: 2018-12-06 14:37:58 大小:360.18 MB 文件数量:4 热度:10 最近下载:2025-09-26 04:33:01
    {"Subs": {"The.Black.Scorpion.1957.1080p.BluRay.H264.AAC-RARBG.idx": 66902, "The.Black.Scorpion.1957.1080p.BluRay.H264.AAC-RARBG.sub": 9353216}, "RARBG.txt": 30, "The.Black.Scorpion.1957.1080p.BluRay.H264.AAC-RARBG.mp4": 1797644935}
创建时间: 2018-12-06 15:37:39 大小:1.68 GB 文件数量:4 热度:8 最近下载:2023-04-22 09:30:16
    {"tbc1996-11-26 fingerprint.txt": 1040, "tbc1996-11-26 information.txt": 1758, "tbc1996-11-26d1t01.flac16.flac": 30471521, "tbc1996-11-26d1t02.flac16.flac": 90160930, "tbc1996-11-26d1t03.flac16.flac": 22614080, "tbc1996-11-26d1t04.flac16.flac": 26530529, " ...
创建时间: 2018-12-06 17:59:13 大小:576.24 MB 文件数量:18 热度:7 最近下载:2023-04-22 10:00:29
    ... of the Black.cue": 975, "M-Pire of Evil - Creatures of the Black.log ... ": 2195, "M-Pire of Evil - Creatures of the Black.flac ...
创建时间: 2018-12-06 18:09:24 大小:201.28 MB 文件数量:9 热度:12 最近下载:2025-08-04 01:08:02
    {"RARBG.com.txt": 34, "The.Black.Hole.1979.720p.HDTV.x264.DD5.1-FGT.mkv": 2879333324, "The.Black.Hole.1979.720p.HDTV.x264.DD5.1-FGT.nfo": 5304}
创建时间: 2018-12-06 18:51:12 大小:2.68 GB 文件数量:3 热度:4 最近下载:2022-04-23 05:48:11
    ... Stay.mp3": 6146176, "09 - The Visitor.mp3": 8685696, "03 - ... - Fingerprints.mp3": 5003392, "10 - The Waiter #4.mp3": 6359168, "05 ... mp3": 9995058, "12 - Before The People.mp3": 5228752, "07 - ... Has Disappeared.mp3": 5714048, "The Black Heart Procession - Amore Del ...
创建时间: 2018-12-06 19:50:46 大小:91.47 MB 文件数量:17 热度:8 最近下载:2025-01-24 21:59:06
    {"Cover.jpg": 93627, "01 - The Black Light.mp3": 8738267}
创建时间: 2018-12-06 21:05:25 大小:8.42 MB 文件数量:2 热度:6 最近下载:2023-04-22 11:00:17
    ... D.O.G.flac": 26839229, "The Black Dog - Further Vexations.log": 13166 ...
创建时间: 2018-12-06 22:25:24 大小:331.92 MB 文件数量:19 热度:10 最近下载:2023-04-22 12:00:12
    ... Know You.flac": 28689869, "06 - The Greatest Fall.flac": 29242004, "05 ... , "Buy The Ticket, Take The Ride.cue": 1626, "Buy The Ticket, Take The Ride ...
创建时间: 2018-12-06 23:07:26 大小:332.55 MB 文件数量:13 热度:16 最近下载:2025-08-05 12:06:07
    ... jpg": 61894, "2004 The Black Mages II The Skies Above": {"Covers": ... ).flac": 26353182, "The Black Mages II The Skies Above.log": ... flac": 34857858}, "2008 The Black Mages III Darkness and ... III).flac": 35844376, "The Black Mages III Darkness and Starlight ...
创建时间: 2018-12-06 23:57:05 大小:1.15 GB 文件数量:58 热度:8 最近下载:2023-04-22 12:50:14
    ... mp3": 10049339, "(08) [Hawkwind] The Demise.mp3": 2270073, "(10) [ ... , "(01) [Hawkwind] Song Of The Swords.mp3": 8080751, "(04) [ ... "(13) [Hawkwind] Night Of The Hawks.mp3": 12270792, "(14) [ ... 8158073, "(05) [Hawkwind] Elric The Enchanter.mp3": 11450547, "(09) [ ...
创建时间: 2018-12-07 00:26:44 大小:129.79 MB 文件数量:17 热度:10 最近下载:2025-09-17 11:59:08
    {"VIDEO_TS.BUP": 12288, "VIDEO_TS.IFO": 12288, "VIDEO_TS.VOB": 97081344, "VTS_01_0.BUP": 49152, "VTS_01_0.IFO": 49152, "VTS_01_0.VOB": 40960, "VTS_01_1.VOB": 1073301504, "VTS_01_2.VOB": 1073707008, "VTS_01_3.VOB": 932945920, "VTS_02_0.BUP": 16384, " ...
创建时间: 2018-12-07 03:58:03 大小:2.96 GB 文件数量:13 热度:14 最近下载:2025-03-05 16:42:02
    ... - Darkest Days.mp3": 11843232, "05 - Black Sunday.mp3": 9680293, "09 - War ... .mp3": 14536982, "03 - Parade of the Dead.mp3": 10213198, "08 - Godspeed ... .mp3": 13405363, "12 - Riders of the Damned.mp3": 9691797, "07 - Time ...
创建时间: 2018-12-07 03:59:56 大小:158.66 MB 文件数量:16 热度:7 最近下载:2023-04-22 14:30:02
    {"RARBG.txt": 30, "the.case.of.the.black.cat.1936.720p.hdtv.x264-regret.mkv": 2162202959, "the.case.of.the.black.cat.1936.720p.hdtv.x264-regret.nfo": 1138}
创建时间: 2018-12-07 04:36:08 大小:2.01 GB 文件数量:3 热度:11 最近下载:2025-02-14 10:51:02
    {"RARBG.com.txt": 34, "twist.14.07.30.sammi.tye.the.red.and.the.black.mp4": 871836436, "twist.14.07.30.sammi.tye.the.red.and.the.black.nfo": 6983}
创建时间: 2018-12-07 08:42:24 大小:831.45 MB 文件数量:3 热度:29 最近下载:2025-10-04 04:50:03
    {"The Black Mother Fuckers1.mp4": 3591320806}
创建时间: 2018-12-07 13:25:29 大小:3.34 GB 文件数量:1 热度:30 最近下载:2025-03-19 11:39:02
    {"TBM CD1.iso": 699346944, "TBM CD2.iso": 670044160, "The Black Mirror - Manuale Ita.pdf": 1222660}
创建时间: 2018-12-07 17:23:55 大小:1.28 GB 文件数量:3 热度:8 最近下载:2025-03-09 17:59:03
    {"folder.jpg": 66666, "06. Albeline.mp3": 7451343, "07. Baby Look.mp3": 7421043, "05. What I Feel.mp3": 7201618, "02. Come with Us.mp3": 7850502, "03. Rock am Tore.mp3": 6401228, "14. Tutti Frutti.mp3": 6551695, "01. Rock'n'Roll and Sex.mp3": 5571593, "08. ...
创建时间: 2018-12-07 17:54:35 大小:110.1 MB 文件数量:16 热度:11 最近下载:2025-08-03 21:43:02
    ... ": 332248, "06 - The Black Eyed Peas - Alive.mp3": 6138621, "04 - The Black Eyed Peas ... , "08 - The Black Eyed Peas - Missing You.mp3": 4474467, "09 - The Black Eyed Peas ... , "10 - The Black Eyed Peas - Party All the Time.mp3": 6750635, "02 - The Black Eyed ...
创建时间: 2018-12-07 18:18:31 大小:55.85 MB 文件数量:12 热度:12 最近下载:2025-07-12 17:05:01